createdAt,value
2019-05-16T00:00:40.324Z,1.93
2019-05-16T00:03:09.834Z,1.70
2019-05-16T00:05:50.808Z,1.57
2019-05-16T00:08:13.190Z,1.80
2019-05-16T00:10:42.514Z,2.07
2019-05-16T00:13:12.296Z,1.30
2019-05-16T00:15:41.429Z,1.50
2019-05-16T00:18:10.585Z,1.60
2019-05-16T00:20:39.771Z,1.50
2019-05-16T00:23:09.329Z,1.43
2019-05-16T00:25:38.672Z,1.53
2019-05-16T00:28:10.226Z,1.63
2019-05-16T00:30:39.669Z,1.70
2019-05-16T00:33:08.786Z,1.80
2019-05-16T00:35:38.876Z,1.70
2019-05-16T00:38:08.829Z,1.50
2019-05-16T00:40:38.431Z,1.40
2019-05-16T00:43:08.024Z,1.57
2019-05-16T00:45:38.574Z,1.70
2019-05-16T00:48:08.948Z,1.83
2019-05-16T00:50:42.028Z,1.47
2019-05-16T00:53:13.182Z,1.40
2019-05-16T00:55:43.102Z,1.40
2019-05-16T00:58:18.509Z,1.47
2019-05-16T01:00:49.837Z,1.57
2019-05-16T01:03:20.214Z,1.67
2019-05-16T01:05:49.741Z,1.50
2019-05-16T01:08:19.213Z,2.33
2019-05-16T01:10:51.480Z,3.07
2019-05-16T01:13:19.408Z,2.70
2019-05-16T01:15:50.573Z,1.87
2019-05-16T01:18:21.934Z,1.60
2019-05-16T01:20:51.135Z,1.67
2019-05-16T01:23:20.281Z,1.50
2019-05-16T01:25:49.422Z,1.60
2019-05-16T01:28:18.778Z,1.63
2019-05-16T01:30:49.967Z,1.67
2019-05-16T01:33:19.441Z,1.60
2019-05-16T01:35:49.051Z,1.50
2019-05-16T01:38:18.319Z,1.70
2019-05-16T01:40:49.169Z,1.50
2019-05-16T01:43:18.683Z,1.70
2019-05-16T01:45:48.695Z,1.60
2019-05-16T01:48:19.061Z,1.20
2019-05-16T01:50:48.625Z,1.43
2019-05-16T01:53:18.087Z,1.60
2019-05-16T01:55:48.853Z,1.50
2019-05-16T01:58:20.293Z,1.50
2019-05-16T02:01:49.757Z,1.33
2019-05-16T02:04:19.854Z,1.33
2019-05-16T02:06:54.510Z,1.60
2019-05-16T02:09:19.831Z,1.63
2019-05-16T02:11:49.082Z,1.50
2019-05-16T02:14:18.195Z,1.63
2019-05-16T02:16:47.870Z,1.60
2019-05-16T02:19:18.833Z,1.70
2019-05-16T02:21:50.696Z,1.50
2019-05-16T02:24:19.474Z,1.63
2019-05-16T02:26:52.010Z,1.40
2019-05-16T02:29:20.654Z,1.40
2019-05-16T02:31:51.425Z,1.60
2019-05-16T02:34:21.867Z,1.57
2019-05-16T02:37:10.685Z,1.57
2019-05-16T02:39:22.864Z,1.63
2019-05-16T02:41:52.141Z,1.67
2019-05-16T02:44:24.540Z,1.60
2019-05-16T02:46:52.200Z,1.87
2019-05-16T02:49:21.739Z,1.70
2019-05-16T02:51:51.360Z,1.60
2019-05-16T02:54:21.885Z,1.83
2019-05-16T02:56:51.148Z,1.60
2019-05-16T02:59:20.790Z,1.30
2019-05-16T03:01:52.214Z,1.67
2019-05-16T03:04:21.789Z,1.80
2019-05-16T03:06:51.415Z,1.83
2019-05-16T03:09:21.490Z,1.80
2019-05-16T03:11:51.308Z,1.77
2019-05-16T03:17:25.906Z,1.63
2019-05-16T03:20:01.455Z,1.70
2019-05-16T03:22:31.841Z,1.67
2019-05-16T03:25:01.597Z,1.63
2019-05-16T03:27:31.277Z,1.30
2019-05-16T03:30:01.705Z,1.60
2019-05-16T03:32:34.198Z,1.40
2019-05-16T03:35:04.911Z,1.47
2019-05-16T03:37:50.139Z,1.57
2019-05-16T03:40:05.764Z,1.60
2019-05-16T03:42:34.906Z,1.70
2019-05-16T03:45:04.921Z,1.63
2019-05-16T03:47:34.103Z,1.70
2019-05-16T03:50:03.767Z,1.63
2019-05-16T03:52:33.196Z,1.90
2019-05-16T03:55:02.888Z,1.67
2019-05-16T03:57:32.051Z,1.70
2019-05-16T04:00:01.113Z,1.60
2019-05-16T04:02:31.099Z,1.50
2019-05-16T04:05:03.057Z,1.60
2019-05-16T04:07:32.527Z,1.63
2019-05-16T04:10:02.452Z,1.50
2019-05-16T04:12:33.634Z,1.50
2019-05-16T04:15:03.152Z,1.63
2019-05-16T04:17:32.296Z,1.87
2019-05-16T04:20:02.396Z,1.80
2019-05-16T04:22:33.940Z,1.87
2019-05-16T04:25:05.437Z,2.00
2019-05-16T04:27:34.595Z,1.60
2019-05-16T04:30:03.695Z,2.00
2019-05-16T04:32:34.102Z,1.80
2019-05-16T04:35:03.261Z,1.70
2019-05-16T04:37:33.747Z,1.80
2019-05-16T04:40:02.959Z,1.70
2019-05-16T04:42:32.108Z,1.77
2019-05-16T04:45:02.372Z,1.50
2019-05-16T04:47:31.877Z,1.70
2019-05-16T04:50:01.962Z,1.50
2019-05-16T04:52:34.091Z,1.67
2019-05-16T04:55:03.256Z,1.80
2019-05-16T04:57:32.351Z,1.80
2019-05-16T05:00:02.513Z,2.00
2019-05-16T05:02:32.446Z,2.10
2019-05-16T05:05:02.820Z,1.50
2019-05-16T05:07:31.902Z,1.60
2019-05-16T05:10:02.017Z,1.70
2019-05-16T05:12:31.564Z,2.07
2019-05-16T05:15:01.634Z,1.67
2019-05-16T05:17:30.860Z,1.60
2019-05-16T05:20:01.150Z,1.80
2019-05-16T05:22:30.617Z,1.53
2019-05-16T05:25:00.271Z,1.70
2019-05-16T05:27:30.324Z,2.00
2019-05-16T05:30:01.049Z,1.50
2019-05-16T05:32:32.571Z,2.00
2019-05-16T05:35:01.687Z,2.20
2019-05-16T05:37:30.784Z,1.43
2019-05-16T05:40:00.087Z,1.90
2019-05-16T05:42:30.535Z,1.90
2019-05-16T05:45:00.946Z,1.47
2019-05-16T05:47:30.874Z,1.47
2019-05-16T05:50:01.383Z,1.83
2019-05-16T05:52:31.058Z,1.50
2019-05-16T05:55:05.090Z,1.43
2019-05-16T05:57:34.539Z,1.50
2019-05-16T06:00:04.107Z,1.30
2019-05-16T06:02:33.230Z,1.30
2019-05-16T06:05:02.487Z,1.53
2019-05-16T06:07:32.018Z,1.40
2019-05-16T06:10:01.594Z,1.70
2019-05-16T06:12:30.707Z,1.60
2019-05-16T06:15:07.615Z,1.73
2019-05-16T06:17:30.940Z,1.40
2019-05-16T06:20:00.383Z,1.23
2019-05-16T06:22:29.991Z,1.43
2019-05-16T06:25:01.170Z,1.40
2019-05-16T06:27:30.395Z,1.60
2019-05-16T06:30:00.664Z,1.33
2019-05-16T06:32:30.719Z,1.23
2019-05-16T06:35:00.272Z,1.60
2019-05-16T06:37:31.005Z,1.60
2019-05-16T06:40:00.950Z,1.30
2019-05-16T06:42:30.410Z,1.40
2019-05-16T06:45:00.773Z,1.67
2019-05-16T06:47:30.604Z,1.50
2019-05-16T06:50:00.423Z,1.50
2019-05-16T06:52:31.730Z,1.60
2019-05-16T06:55:00.931Z,1.67
2019-05-16T06:57:30.441Z,1.00
2019-05-16T07:00:00.831Z,1.33
2019-05-16T07:02:34.262Z,1.30
2019-05-16T07:05:01.394Z,1.10
2019-05-16T07:07:34.244Z,1.47
2019-05-16T07:10:04.674Z,1.53
2019-05-16T07:12:34.258Z,1.20
2019-05-16T07:15:03.834Z,1.50
2019-05-16T07:17:33.305Z,1.20
2019-05-16T07:20:03.007Z,1.20
2019-05-16T07:22:32.438Z,1.17
2019-05-16T07:25:01.573Z,1.10
2019-05-16T07:27:31.064Z,1.73
2019-05-16T07:30:01.469Z,1.60
2019-05-16T07:32:30.755Z,1.40
2019-05-16T07:35:00.495Z,1.33
2019-05-16T07:37:31.991Z,1.20
2019-05-16T07:40:15.570Z,1.37
2019-05-16T07:42:32.361Z,1.57
2019-05-16T07:45:01.783Z,1.00
2019-05-16T07:47:31.081Z,1.30
2019-05-16T07:50:04.197Z,1.30
2019-05-16T07:52:36.497Z,1.30
2019-05-16T07:55:04.257Z,1.30
2019-05-16T07:57:35.751Z,1.30
2019-05-16T08:00:05.917Z,1.20
2019-05-16T08:02:35.088Z,1.40
2019-05-16T08:05:04.634Z,2.00
2019-05-16T08:07:33.814Z,1.70
2019-05-16T08:10:03.082Z,1.50
2019-05-16T08:12:33.141Z,1.27
2019-05-16T08:15:02.698Z,1.23
2019-05-16T08:17:32.093Z,4.10
2019-05-16T08:20:01.283Z,2.07
2019-05-16T08:22:30.939Z,3.57
2019-05-16T08:25:00.550Z,1.77
2019-05-16T08:27:31.210Z,2.07
2019-05-16T08:30:02.478Z,1.50
2019-05-16T08:32:33.001Z,1.30
2019-05-16T08:35:03.206Z,1.50
2019-05-16T08:40:04.747Z,1.80
2019-05-16T08:42:34.214Z,1.67
2019-05-16T08:45:04.581Z,1.30
2019-05-16T08:47:34.370Z,1.40
2019-05-16T08:50:04.019Z,1.07
2019-05-16T08:52:33.467Z,1.30
2019-05-16T08:55:03.661Z,1.47
2019-05-16T08:57:34.252Z,1.20
2019-05-16T09:00:04.303Z,1.20
2019-05-16T09:02:36.899Z,2.40
2019-05-16T09:05:06.250Z,1.83
2019-05-16T09:07:35.547Z,1.80
2019-05-16T09:10:10.381Z,1.43
2019-05-16T09:10:40.935Z,1.60
2019-05-16T09:12:37.127Z,1.53
2019-05-16T09:15:07.826Z,1.30
2019-05-16T09:17:38.540Z,1.40
2019-05-16T09:20:08.471Z,1.60
2019-05-16T09:22:38.048Z,1.90
2019-05-16T09:25:08.162Z,1.40
2019-05-16T09:27:38.158Z,1.60
2019-05-16T09:30:08.819Z,1.50
2019-05-16T09:32:42.391Z,1.50
2019-05-16T09:35:10.110Z,1.40
2019-05-16T09:37:39.926Z,1.67
2019-05-16T09:40:11.613Z,1.80
2019-05-16T09:42:40.993Z,1.63
2019-05-16T09:45:10.092Z,1.47
2019-05-16T09:47:39.359Z,1.30
2019-05-16T09:50:09.702Z,1.23
2019-05-16T09:52:39.137Z,1.30
2019-05-16T09:55:09.014Z,1.33
2019-05-16T09:57:38.632Z,1.87
2019-05-16T10:00:12.839Z,1.70
2019-05-16T10:02:42.243Z,1.40
2019-05-16T10:05:13.564Z,2.10
2019-05-16T10:07:43.020Z,1.60
2019-05-16T10:10:13.845Z,1.50
2019-05-16T10:12:42.947Z,1.77
2019-05-16T10:15:13.695Z,1.87
2019-05-16T10:17:42.782Z,1.63
2019-05-16T10:20:12.656Z,1.47
2019-05-16T10:22:42.676Z,1.80
2019-05-16T10:25:12.267Z,1.60
2019-05-16T10:27:41.423Z,1.70
2019-05-16T10:30:11.716Z,2.00
2019-05-16T10:32:41.166Z,2.07
2019-05-16T10:35:10.439Z,1.80
2019-05-16T10:37:39.521Z,1.50
2019-05-16T10:40:10.254Z,1.60
2019-05-16T10:42:39.668Z,1.73
2019-05-16T10:45:09.615Z,1.93
2019-05-16T10:47:38.692Z,2.00
2019-05-16T10:50:08.091Z,1.70
2019-05-16T10:52:37.674Z,2.30
2019-05-16T10:55:09.453Z,1.70
2019-05-16T10:57:39.181Z,2.00
2019-05-16T11:00:21.431Z,2.00
2019-05-16T11:02:40.502Z,2.00
2019-05-16T11:05:25.784Z,2.00
2019-05-16T11:07:41.835Z,1.70
2019-05-16T11:10:12.192Z,1.57
2019-05-16T11:12:50.333Z,1.93
2019-05-16T11:15:12.711Z,1.70
2019-05-16T11:17:42.182Z,1.80
2019-05-16T11:20:12.525Z,1.70
2019-05-16T11:22:42.008Z,2.03
2019-05-16T11:25:24.663Z,1.93
2019-05-16T11:27:42.962Z,1.87
2019-05-16T11:30:12.672Z,2.50
2019-05-16T11:32:42.192Z,2.13
2019-05-16T11:35:11.671Z,2.10
2019-05-16T11:37:40.794Z,2.07
2019-05-16T11:40:10.680Z,1.73
2019-05-16T11:42:40.102Z,2.20
2019-05-16T11:45:10.923Z,1.97
2019-05-16T11:47:40.104Z,1.90
2019-05-16T11:50:09.663Z,1.80
2019-05-16T11:55:20.889Z,1.80
2019-05-16T11:57:50.372Z,1.90
2019-05-16T12:00:20.037Z,1.63
2019-05-16T12:02:49.511Z,1.40
2019-05-16T12:05:19.052Z,2.30
2019-05-16T12:07:48.975Z,2.10
2019-05-16T12:10:18.377Z,1.57
2019-05-16T12:12:47.816Z,1.67
2019-05-16T12:15:20.108Z,1.73
2019-05-16T12:18:00.384Z,1.77
2019-05-16T12:20:20.609Z,1.80
2019-05-16T12:22:49.698Z,1.53
2019-05-16T12:25:19.115Z,1.90
2019-05-16T12:27:48.279Z,2.37
2019-05-16T12:30:17.940Z,2.43
2019-05-16T12:32:47.322Z,1.97
2019-05-16T12:35:17.570Z,2.00
2019-05-16T12:37:51.907Z,2.00
2019-05-16T12:40:20.727Z,2.37
2019-05-16T12:42:50.503Z,1.70
2019-05-16T12:45:21.504Z,1.87
2019-05-16T12:47:50.658Z,1.83
2019-05-16T12:50:19.902Z,1.90
2019-05-16T12:52:49.065Z,2.23
2019-05-16T12:55:18.653Z,2.30
2019-05-16T12:57:49.165Z,2.10
2019-05-16T13:00:20.029Z,2.10
2019-05-16T13:02:49.419Z,1.73
2019-05-16T13:05:18.996Z,2.60
2019-05-16T13:07:48.368Z,2.00
2019-05-16T13:10:18.203Z,2.00
2019-05-16T13:12:47.298Z,2.10
2019-05-16T13:15:18.263Z,3.27
2019-05-16T13:17:47.833Z,3.00
2019-05-16T13:20:17.423Z,2.70
2019-05-16T13:22:50.929Z,2.00
2019-05-16T13:25:27.564Z,1.90
2019-05-16T13:27:57.872Z,1.90
2019-05-16T13:30:27.551Z,1.77
2019-05-16T13:32:56.921Z,1.70
2019-05-16T13:35:27.176Z,1.67
2019-05-16T13:37:58.027Z,1.73
2019-05-16T13:40:28.672Z,1.67
2019-05-16T13:42:57.836Z,1.70
2019-05-16T13:45:27.353Z,1.47
2019-05-16T13:47:58.693Z,1.60
2019-05-16T13:50:29.827Z,1.30
2019-05-16T13:52:59.084Z,1.30
2019-05-16T13:55:28.435Z,1.37
2019-05-16T13:57:58.864Z,1.27
2019-05-16T14:00:28.252Z,1.30
2019-05-16T14:02:58.256Z,2.13
2019-05-16T14:05:28.629Z,2.00
2019-05-16T14:08:06.722Z,3.10
2019-05-16T14:10:37.533Z,1.90
2019-05-16T14:13:10.234Z,2.97
2019-05-16T14:15:40.379Z,1.97
2019-05-16T14:18:12.899Z,1.97
2019-05-16T14:20:48.243Z,3.40
2019-05-16T14:23:19.632Z,2.57
2019-05-16T14:25:51.829Z,2.10
2019-05-16T14:28:20.878Z,1.57
2019-05-16T14:30:50.039Z,3.00
2019-05-16T14:33:19.179Z,3.17
2019-05-16T14:35:50.529Z,2.20
2019-05-16T14:38:19.728Z,2.00
2019-05-16T14:40:50.480Z,1.20
2019-05-16T14:43:20.830Z,1.30
2019-05-16T14:45:54.232Z,1.43
2019-05-16T14:48:23.736Z,1.20
2019-05-16T14:50:53.696Z,1.20
2019-05-16T14:53:28.481Z,2.40
2019-05-16T14:55:57.932Z,1.77
2019-05-16T14:58:32.019Z,1.53
2019-05-16T15:01:07.173Z,1.43
2019-05-16T15:03:38.555Z,1.40
2019-05-16T15:06:09.804Z,2.37
2019-05-16T15:08:38.917Z,3.00
2019-05-16T15:11:08.426Z,5.60
2019-05-16T15:13:37.970Z,5.07
2019-05-16T15:16:07.568Z,3.50
2019-05-16T15:18:38.456Z,2.40
2019-05-16T15:21:09.085Z,2.30
2019-05-16T15:23:38.603Z,1.80
2019-05-16T15:26:09.453Z,1.30
2019-05-16T15:28:38.825Z,1.30
2019-05-16T15:31:08.533Z,1.20
2019-05-16T15:33:38.006Z,1.00
2019-05-16T15:36:08.639Z,0.90
2019-05-16T15:38:37.926Z,3.33
2019-05-16T15:41:08.312Z,2.00
2019-05-16T15:43:37.927Z,1.87
2019-05-16T15:46:09.083Z,1.97
2019-05-16T15:48:38.261Z,3.37
2019-05-16T15:51:13.566Z,3.50
2019-05-16T15:53:43.806Z,2.10
2019-05-16T15:56:12.896Z,2.20
2019-05-16T15:58:43.022Z,1.70
2019-05-16T16:01:18.613Z,1.80
2019-05-16T16:03:47.858Z,2.60
2019-05-16T16:06:53.601Z,2.10
2019-05-16T16:09:26.826Z,1.90
2019-05-16T16:12:03.554Z,1.70
2019-05-16T16:15:10.110Z,2.43
2019-05-16T16:17:46.922Z,3.00
2019-05-16T16:20:28.616Z,2.50
2019-05-16T16:23:02.740Z,2.80
2019-05-16T16:25:41.007Z,2.20
2019-05-16T16:28:17.749Z,2.43
2019-05-16T16:30:52.190Z,1.97
2019-05-16T16:33:26.345Z,1.50
2019-05-16T16:35:54.155Z,1.30
2019-05-16T16:38:24.661Z,1.60
2019-05-16T16:40:54.132Z,1.77
2019-05-16T16:43:38.719Z,1.50
2019-05-16T16:46:13.106Z,1.60
2019-05-16T16:48:43.264Z,1.73
2019-05-16T16:51:17.407Z,1.60
2019-05-16T16:53:46.835Z,1.57
2019-05-16T16:56:16.938Z,1.60
2019-05-16T16:58:46.685Z,2.03
2019-05-16T17:01:17.403Z,2.10
2019-05-16T17:03:48.635Z,1.93
2019-05-16T17:06:18.110Z,1.90
2019-05-16T17:08:58.761Z,1.70
2019-05-16T17:11:33.793Z,1.53
2019-05-16T17:14:09.756Z,1.23
2019-05-16T17:16:57.614Z,1.50
2019-05-16T17:19:26.806Z,1.40
2019-05-16T17:22:11.530Z,1.33
2019-05-16T17:24:27.368Z,1.60
2019-05-16T17:27:03.084Z,1.50
2019-05-16T17:29:36.748Z,1.60
2019-05-16T17:32:06.768Z,1.60
2019-05-16T17:34:37.270Z,1.30
2019-05-16T17:37:17.665Z,1.30
2019-05-16T17:39:47.502Z,2.23
2019-05-16T17:42:17.035Z,3.27
2019-05-16T17:44:47.296Z,2.00
2019-05-16T17:47:17.578Z,1.93
2019-05-16T17:49:47.184Z,1.70
2019-05-16T17:52:16.706Z,2.37
2019-05-16T17:54:46.179Z,2.03
2019-05-16T17:57:17.026Z,1.50
2019-05-16T17:59:49.615Z,1.43
2019-05-16T18:02:26.707Z,1.97
2019-05-16T18:04:58.448Z,2.07
2019-05-16T18:07:36.955Z,2.10
2019-05-16T18:10:07.402Z,2.40
2019-05-16T18:12:42.945Z,3.00
2019-05-16T18:15:22.134Z,2.33
2019-05-16T18:17:56.106Z,1.93
2019-05-16T18:20:26.588Z,1.60
2019-05-16T18:22:57.029Z,1.63
2019-05-16T18:25:36.699Z,1.80
2019-05-16T18:28:12.294Z,1.67
2019-05-16T18:30:41.732Z,1.87
2019-05-16T18:33:10.860Z,1.70
2019-05-16T18:35:40.935Z,1.67
2019-05-16T18:38:10.136Z,1.70
2019-05-16T18:40:39.681Z,1.60
2019-05-16T18:43:09.976Z,1.63
2019-05-16T18:45:39.254Z,1.87
2019-05-16T18:48:08.874Z,2.10
2019-05-16T18:50:43.411Z,2.03
2019-05-16T18:53:12.545Z,3.10
2019-05-16T18:55:41.664Z,3.37
2019-05-16T18:58:11.450Z,2.97
2019-05-16T19:00:41.569Z,3.00
2019-05-16T19:03:10.915Z,3.40
2019-05-16T19:05:40.093Z,3.00
2019-05-16T19:08:09.202Z,2.60
2019-05-16T19:10:38.527Z,3.30
2019-05-16T19:13:08.469Z,3.10
2019-05-16T19:15:38.040Z,4.17
2019-05-16T19:18:07.157Z,5.10
2019-05-16T19:20:37.571Z,21.57
2019-05-16T19:23:07.808Z,5.90
2019-05-16T19:25:36.961Z,3.80
2019-05-16T19:28:07.069Z,4.00
2019-05-16T19:30:37.486Z,4.07
2019-05-16T19:33:07.352Z,4.23
2019-05-16T19:35:36.744Z,4.43
2019-05-16T19:38:06.876Z,5.47
2019-05-16T19:40:37.797Z,6.17
2019-05-16T19:43:07.648Z,6.20
2019-05-16T19:45:37.554Z,9.73
2019-05-16T19:48:07.827Z,6.57
2019-05-16T19:50:41.484Z,11.60
2019-05-16T19:53:16.485Z,9.50
2019-05-16T19:55:47.068Z,5.80
2019-05-16T19:58:16.484Z,8.33
2019-05-16T20:00:46.500Z,7.00
2019-05-16T20:03:27.665Z,6.07
2019-05-16T20:05:57.851Z,6.53
2019-05-16T20:08:33.911Z,7.90
2019-05-16T20:11:03.525Z,5.47
2019-05-16T20:13:32.762Z,7.70
2019-05-16T20:16:02.521Z,6.57
2019-05-16T20:18:37.360Z,10.63
2019-05-16T20:21:09.607Z,7.80
2019-05-16T20:23:48.622Z,6.93
2019-05-16T20:26:27.731Z,4.67
2019-05-16T20:29:01.964Z,5.50
2019-05-16T20:31:31.406Z,10.47
2019-05-16T20:34:09.803Z,8.50
2019-05-16T20:36:49.351Z,7.13
2019-05-16T20:39:26.685Z,10.17
2019-05-16T20:41:59.392Z,7.30
2019-05-16T20:44:32.147Z,5.50
2019-05-16T20:47:01.199Z,5.67
2019-05-16T20:49:33.098Z,4.97
2019-05-16T20:52:17.391Z,5.00
2019-05-16T20:54:46.609Z,4.77
2019-05-16T20:57:24.073Z,5.40
2019-05-16T21:00:06.786Z,4.27
2019-05-16T21:02:40.467Z,4.03
2019-05-16T21:05:19.778Z,3.97
2019-05-16T21:07:53.274Z,5.80
2019-05-16T21:10:28.739Z,4.40
2019-05-16T21:13:00.143Z,4.40
2019-05-16T21:15:33.487Z,4.73
2019-05-16T21:18:09.500Z,4.37
2019-05-16T21:21:09.945Z,3.93
2019-05-16T21:24:01.007Z,4.27
2019-05-16T21:26:30.197Z,4.90
2019-05-16T21:28:59.851Z,5.40
2019-05-16T21:31:29.251Z,5.70
2019-05-16T21:34:16.146Z,6.97
2019-05-16T21:36:48.266Z,6.57
2019-05-16T21:39:19.611Z,5.70
2019-05-16T21:41:53.784Z,5.90
2019-05-16T21:44:26.006Z,4.83
2019-05-16T21:46:56.956Z,5.33
2019-05-16T21:49:39.908Z,5.90
2019-05-16T21:52:19.993Z,6.27
2019-05-16T21:54:50.115Z,6.60
2019-05-16T21:57:20.363Z,5.03
2019-05-16T21:59:49.422Z,5.53
2019-05-16T22:02:20.180Z,5.23
2019-05-16T22:04:49.980Z,6.33
2019-05-16T22:07:33.043Z,6.70
2019-05-16T22:09:54.119Z,6.50
2019-05-16T22:12:40.320Z,5.97
2019-05-16T22:15:28.522Z,9.70
2019-05-16T22:18:00.711Z,6.53
2019-05-16T22:20:31.968Z,7.60
2019-05-16T22:23:02.473Z,7.27
2019-05-16T22:25:41.195Z,8.07
2019-05-16T22:28:19.933Z,7.07
2019-05-16T22:30:50.552Z,7.77
2019-05-16T22:33:19.674Z,6.67
2019-05-16T22:35:52.549Z,7.43
2019-05-16T22:38:22.681Z,8.03
2019-05-16T22:40:52.099Z,11.10
2019-05-16T22:43:21.639Z,7.93
2019-05-16T22:45:51.189Z,6.77
2019-05-16T22:48:20.303Z,8.00
2019-05-16T22:50:51.430Z,12.70
2019-05-16T22:53:20.858Z,7.43
2019-05-16T22:55:50.223Z,6.97
2019-05-16T22:58:20.435Z,8.23
2019-05-16T23:01:17.588Z,5.97
2019-05-16T23:03:48.239Z,9.53
2019-05-16T23:06:23.611Z,10.50
2019-05-16T23:09:07.540Z,9.67
2019-05-16T23:11:44.562Z,7.57
2019-05-16T23:14:14.021Z,11.93
2019-05-16T23:16:52.425Z,9.67
2019-05-16T23:19:28.578Z,7.23
2019-05-16T23:22:01.813Z,8.37
2019-05-16T23:24:40.222Z,6.30
2019-05-16T23:27:09.301Z,9.33
2019-05-16T23:29:48.302Z,9.07
2019-05-16T23:32:23.649Z,7.53
2019-05-16T23:34:57.106Z,7.20
2019-05-16T23:37:27.416Z,7.00
2019-05-16T23:39:56.898Z,9.07
2019-05-16T23:42:26.451Z,8.13
2019-05-16T23:44:56.846Z,7.20
2019-05-16T23:47:27.954Z,9.67
2019-05-16T23:49:57.450Z,9.43
2019-05-16T23:52:46.898Z,11.67
2019-05-16T23:55:17.358Z,10.33
2019-05-16T23:57:51.065Z,9.50
